< < Back
Terminal Aerodrome Forecast


Current Version              Previous Versions:   1  2  3  4  5  6  7  8  9  

Terminal Aerodrome Forecast

519
FTUS44 KHUN 190536
TAFHSV
TAF
KHSV 190536Z 1906/2006 14006KT P6SM -SHRA BKN100
     FM190900 15006KT 5SM SHRA BR OVC030
     FM191000 16007KT 4SM SHRA BR OVC012
     FM191600 22012KT 5SM -SHRA BR OVC030
     FM192000 23015G25KT P6SM OVC040
      TEMPO 1921/2001 5SM -TSRA BR BKN025CB
     FM200100 17010KT P6SM BKN050=



Latest METAR

870
SAUS80 KWBC 190700 RRA
MTRHSV
METAR KHSV 190653Z AUTO 11007KT 7SM -RA SCT041 BKN060 OVC110 20/18 A2980
RMK AO2 RAB08 SLP082 P0001 T02000178 $


USA.gov is the U.S. government's official web portal to all federal, state and local government web resources and services.